Time;durP1;ratioP1;P1;durP2;ratioP2;P2;SDS_P1;SDS_P2;PMS_P1;PMS_P2;Temp;Humidity;BMP_temperature;BMP_pressure;BME280_temperature;BME280_humidity;BME280_pressure;Samples;Min_cycle;Max_cycle;Signal;HPM_P1;HPM_P2
2024/01/28 00:00:22;;;;;;;21.50;17.73;;;-0.70;99.90;;;;;;3098936;28;20503;-85
2024/01/28 00:01:54;;;;;;;19.55;17.75;;;-0.70;99.90;;;;;;3091800;28;20076;-84
2024/01/28 00:03:25;;;;;;;20.92;15.32;;;-0.70;99.90;;;;;;3099590;28;20442;-84
2024/01/28 00:04:56;;;;;;;20.45;17.38;;;-0.20;99.90;;;;;;3098570;28;20117;-84
2024/01/28 00:06:26;;;;;;;28.50;17.15;;;-0.20;99.90;;;;;;3094884;28;20034;-84
2024/01/28 00:07:58;;;;;;;25.23;18.20;;;-0.20;99.90;;;;;;3103656;28;20037;-84
2024/01/28 00:09:29;;;;;;;19.88;14.50;;;0.30;99.90;;;;;;3106641;28;20117;-85
2024/01/28 00:10:59;;;;;;;22.13;14.68;;;-0.30;99.90;;;;;;3096188;28;20128;-84
2024/01/28 00:12:30;;;;;;;28.05;17.98;;;-0.80;99.90;;;;;;3086634;28;20121;-84
2024/01/28 00:14:01;;;;;;;30.52;16.98;;;-0.80;99.90;;;;;;3102653;28;20026;-85
2024/01/28 00:15:32;;;;;;;18.10;16.35;;;-0.30;99.90;;;;;;3086676;28;20134;-84
2024/01/28 00:17:03;;;;;;;18.33;14.10;;;-0.80;99.90;;;;;;3072383;28;20063;-85
2024/01/28 00:18:34;;;;;;;24.55;16.70;;;-0.80;99.90;;;;;;3098904;28;20373;-84
2024/01/28 00:20:05;;;;;;;18.60;13.90;;;-0.80;99.90;;;;;;3096048;28;20042;-84
2024/01/28 00:21:37;;;;;;;18.98;15.20;;;-0.90;99.90;;;;;;3113657;28;20505;-84
2024/01/28 00:23:07;;;;;;;22.63;15.60;;;-0.20;99.90;;;;;;3098384;28;20084;-84
2024/01/28 00:24:38;;;;;;;21.95;14.55;;;-0.80;99.90;;;;;;3102501;28;20030;-84
2024/01/28 00:26:09;;;;;;;17.65;16.08;;;-0.80;99.90;;;;;;3093997;28;20030;-84
2024/01/28 00:27:40;;;;;;;19.55;16.00;;;-0.90;99.90;;;;;;3115173;28;20075;-84
2024/01/28 00:29:11;;;;;;;17.52;15.75;;;-0.90;99.90;;;;;;3102356;28;20022;-84
2024/01/28 00:30:42;;;;;;;15.57;14.05;;;-0.90;99.90;;;;;;3105582;28;20026;-85
2024/01/28 00:32:13;;;;;;;19.55;16.52;;;0.20;99.90;;;;;;3106299;28;20078;-84
2024/01/28 00:33:44;;;;;;;16.35;14.85;;;-1.00;99.90;;;;;;3106559;28;20025;-84
2024/01/28 00:35:15;;;;;;;17.73;16.00;;;-1.00;99.90;;;;;;3094279;28;20034;-84
2024/01/28 00:36:45;;;;;;;18.52;14.85;;;-1.10;99.90;;;;;;3102351;28;20040;-84
2024/01/28 00:38:16;;;;;;;22.85;15.63;;;-0.70;99.90;;;;;;3086117;28;20035;-85
2024/01/28 00:39:47;;;;;;;18.75;15.32;;;-1.10;99.90;;;;;;3103179;28;20183;-85
2024/01/28 00:41:22;;;;;;;26.90;16.50;;;-1.00;99.90;;;;;;3097017;28;20026;-84
2024/01/28 00:42:53;;;;;;;16.42;13.90;;;-0.60;99.90;;;;;;3091086;28;20113;-84
2024/01/28 00:44:24;;;;;;;20.90;17.63;;;-0.50;99.90;;;;;;3106501;28;20022;-85
2024/01/28 00:45:55;;;;;;;19.35;16.35;;;-0.50;99.90;;;;;;3106342;28;20033;-84
2024/01/28 00:47:25;;;;;;;27.38;15.75;;;-0.60;99.90;;;;;;3105852;28;20034;-87
2024/01/28 00:48:57;;;;;;;24.85;16.85;;;-1.20;99.90;;;;;;3093997;28;20031;-84
2024/01/28 00:50:27;;;;;;;16.52;14.63;;;-1.20;99.90;;;;;;3102108;28;20037;-84
2024/01/28 00:52:02;;;;;;;18.30;14.82;;;-1.20;99.90;;;;;;3095352;28;20053;-85
2024/01/28 00:53:33;;;;;;;15.88;14.35;;;-1.10;99.90;;;;;;3106846;28;20129;-84
2024/01/28 00:55:04;;;;;;;17.35;15.55;;;-0.80;99.90;;;;;;3086051;28;20043;-84
2024/01/28 00:56:35;;;;;;;17.20;15.38;;;-1.30;99.90;;;;;;3070397;28;20047;-85
2024/01/28 00:58:07;;;;;;;18.10;16.17;;;;;;;;;;3087799;28;20129;-84
2024/01/28 00:59:38;;;;;;;21.25;15.77;;;-1.40;99.90;;;;;;3101962;28;20458;-85
2024/01/28 01:01:09;;;;;;;20.42;17.70;;;-0.70;99.90;;;;;;3092320;28;20087;-85
2024/01/28 01:02:40;;;;;;;19.50;17.42;;;-1.40;99.90;;;;;;3112907;28;20033;-85
2024/01/28 01:04:11;;;;;;;23.02;17.83;;;-1.20;99.90;;;;;;3096480;28;20517;-85
2024/01/28 01:05:42;;;;;;;21.52;18.65;;;-1.30;99.90;;;;;;3093903;28;20035;-85
2024/01/28 01:07:12;;;;;;;22.23;19.98;;;-1.30;99.90;;;;;;3085217;28;20030;-86
2024/01/28 01:08:43;;;;;;;25.08;20.05;;;-0.40;99.90;;;;;;3094209;28;20552;-85
2024/01/28 01:10:14;;;;;;;27.10;19.52;;;-0.50;99.90;;;;;;3106131;28;20033;-85
2024/01/28 01:11:45;;;;;;;20.55;18.45;;;-1.30;99.90;;;;;;3096086;28;20486;-85
2024/01/28 01:13:16;;;;;;;28.85;18.58;;;-1.30;99.90;;;;;;3106171;28;20032;-85
2024/01/28 01:14:47;;;;;;;23.38;20.13;;;-1.40;99.90;;;;;;3111115;28;20041;-84
2024/01/28 01:16:18;;;;;;;26.83;21.63;;;-1.40;99.90;;;;;;3109900;28;20060;-85
2024/01/28 01:17:50;;;;;;;20.65;18.67;;;-0.90;99.90;;;;;;3110184;28;20124;-87
2024/01/28 01:19:20;;;;;;;25.98;19.48;;;-1.30;99.90;;;;;;3094026;28;20034;-85
2024/01/28 01:20:52;;;;;;;20.13;17.17;;;-1.40;99.90;;;;;;3113406;28;20458;-87
2024/01/28 01:22:23;;;;;;;26.48;18.50;;;-1.40;99.90;;;;;;3098063;28;20038;-84
2024/01/28 01:23:54;;;;;;;21.67;18.02;;;-1.30;99.90;;;;;;3101983;28;20045;-85
2024/01/28 01:25:25;;;;;;;21.92;17.63;;;-1.30;99.90;;;;;;3106005;28;20034;-87
2024/01/28 01:26:56;;;;;;;19.25;17.50;;;-1.30;99.90;;;;;;3097808;28;20034;-85
2024/01/28 01:28:31;;;;;;;23.10;20.52;;;-1.30;99.90;;;;;;3104993;28;20113;-85
2024/01/28 01:30:02;;;;;;;18.70;16.73;;;-1.30;99.90;;;;;;3106509;28;20018;-88
2024/01/28 01:31:33;;;;;;;19.45;17.60;;;-1.20;99.90;;;;;;3105199;28;20057;-86
2024/01/28 01:33:04;;;;;;;20.60;18.70;;;-1.20;99.90;;;;;;3097628;28;20030;-85
2024/01/28 01:34:35;;;;;;;29.77;18.52;;;-0.50;99.90;;;;;;3089934;28;20056;-84
2024/01/28 01:36:06;;;;;;;21.63;19.42;;;-1.10;99.90;;;;;;3101767;28;20067;-84
2024/01/28 01:37:37;;;;;;;30.13;17.70;;;-1.00;99.90;;;;;;3093680;28;20031;-84
2024/01/28 01:39:08;;;;;;;20.42;18.33;;;-0.40;99.90;;;;;;3081671;28;20055;-85
2024/01/28 01:40:38;;;;;;;22.15;19.83;;;-0.70;99.90;;;;;;3093809;28;20113;-84
2024/01/28 01:42:10;;;;;;;26.73;19.30;;;-0.50;99.90;;;;;;3108845;28;20025;-87
2024/01/28 01:43:41;;;;;;;21.73;17.98;;;-0.10;99.90;;;;;;3090046;28;20085;-84
2024/01/28 01:45:12;;;;;;;21.25;18.75;;;-1.00;99.90;;;;;;3093881;28;20027;-85
2024/01/28 01:46:45;;;;;;;27.25;19.85;;;-0.90;99.90;;;;;;3088469;28;20034;-84
2024/01/28 01:48:16;;;;;;;22.70;18.60;;;-0.90;99.90;;;;;;3106633;28;20422;-85
2024/01/28 01:49:48;;;;;;;41.45;18.08;;;;;;;;;;3109670;28;20537;-84
2024/01/28 01:51:21;;;;;;;25.10;18.02;;;-0.70;99.90;;;;;;3109624;28;20032;-84
2024/01/28 01:52:52;;;;;;;33.78;19.48;;;0.00;99.90;;;;;;3094104;28;20543;-86
2024/01/28 01:54:23;;;;;;;19.75;15.82;;;-0.10;99.90;;;;;;3101853;28;20026;-85
2024/01/28 01:55:54;;;;;;;18.88;16.58;;;-0.80;99.90;;;;;;3105725;28;20135;-85
2024/01/28 01:57:26;;;;;;;20.73;17.50;;;-0.80;99.90;;;;;;3106054;28;20038;-87
2024/01/28 01:58:57;;;;;;;20.63;18.42;;;-0.80;99.90;;;;;;3093414;28;20053;-84
2024/01/28 02:00:29;;;;;;;17.92;16.33;;;-0.40;99.90;;;;;;3078168;28;20435;-85
2024/01/28 02:02:05;;;;;;;17.40;15.27;;;-0.50;99.90;;;;;;3078061;28;20027;-84
2024/01/28 02:03:36;;;;;;;20.40;16.42;;;-1.10;99.90;;;;;;3103208;28;20038;-84
2024/01/28 02:05:07;;;;;;;17.05;15.55;;;-0.50;99.90;;;;;;3093491;28;20035;-84
2024/01/28 02:06:38;;;;;;;22.17;16.63;;;-1.20;99.90;;;;;;3114270;28;20029;-85
2024/01/28 02:08:09;;;;;;;16.13;14.27;;;-0.80;99.90;;;;;;3097218;28;20039;-84
2024/01/28 02:09:40;;;;;;;16.88;15.32;;;-1.30;99.90;;;;;;3097532;28;20394;-86
2024/01/28 02:11:11;;;;;;;19.48;15.55;;;-1.30;99.90;;;;;;3097577;28;20106;-84
2024/01/28 02:12:44;;;;;;;18.15;16.25;;;-1.30;99.90;;;;;;3093722;28;20019;-84
2024/01/28 02:14:24;;;;;;;15.88;14.23;;;-0.70;99.90;;;;;;3114779;28;20029;-84
2024/01/28 02:15:55;;;;;;;20.35;16.85;;;-1.30;99.90;;;;;;3090561;28;20206;-88
2024/01/28 02:17:25;;;;;;;22.67;18.02;;;-1.30;99.90;;;;;;3100225;28;20108;-87
2024/01/28 02:18:56;;;;;;;25.48;15.05;;;-0.70;99.90;;;;;;3103394;28;20035;-85
2024/01/28 02:20:27;;;;;;;18.30;16.25;;;-1.00;99.90;;;;;;3084035;28;20045;-85
2024/01/28 02:21:59;;;;;;;16.27;14.52;;;-1.30;99.90;;;;;;3089387;28;20022;-85
2024/01/28 02:23:30;;;;;;;27.65;15.82;;;-1.40;99.90;;;;;;3084152;28;20043;-84
2024/01/28 02:25:03;;;;;;;23.13;15.57;;;-1.40;99.90;;;;;;3095751;28;20022;-86
2024/01/28 02:26:34;;;;;;;20.70;16.77;;;-1.50;99.90;;;;;;3107962;28;20034;-86
2024/01/28 02:28:05;;;;;;;25.80;17.15;;;-1.50;99.90;;;;;;3099611;28;20169;-85
2024/01/28 02:29:35;;;;;;;15.75;14.05;;;-1.40;99.90;;;;;;3108414;28;20045;-84
2024/01/28 02:31:06;;;;;;;20.42;15.68;;;-1.40;99.90;;;;;;3107016;28;20030;-85
2024/01/28 02:32:37;;;;;;;15.38;13.32;;;-1.10;99.90;;;;;;3099908;28;20411;-84
2024/01/28 02:34:08;;;;;;;29.23;17.08;;;-1.10;99.90;;;;;;3112007;28;20034;-85
2024/01/28 02:35:38;;;;;;;20.27;15.77;;;-1.40;99.90;;;;;;3108166;28;20106;-85
2024/01/28 02:37:10;;;;;;;18.17;15.88;;;-1.30;99.90;;;;;;3095867;28;20030;-85
2024/01/28 02:38:41;;;;;;;19.88;15.93;;;-0.90;99.90;;;;;;3103997;28;20461;-84
2024/01/28 02:40:12;;;;;;;18.55;15.48;;;-1.30;99.90;;;;;;3099817;28;20038;-85
2024/01/28 02:41:43;;;;;;;18.05;14.50;;;-1.30;99.90;;;;;;3086675;28;20031;-85
2024/01/28 02:43:14;;;;;;;20.02;13.95;;;-1.30;99.90;;;;;;3103878;28;20532;-84
2024/01/28 02:44:45;;;;;;;17.92;15.35;;;-1.30;99.90;;;;;;3092011;28;20047;-84
2024/01/28 02:46:16;;;;;;;23.65;16.83;;;-0.50;99.90;;;;;;3091538;28;20085;-84
2024/01/28 02:47:46;;;;;;;22.25;15.07;;;-1.00;99.90;;;;;;3095633;28;20035;-84
2024/01/28 02:49:17;;;;;;;24.13;16.42;;;-1.00;99.90;;;;;;3087802;28;20487;-84
2024/01/28 02:50:48;;;;;;;19.85;14.38;;;-0.90;99.90;;;;;;3092195;28;20142;-84
2024/01/28 02:52:19;;;;;;;18.25;14.48;;;-0.80;99.90;;;;;;3111445;28;20125;-84
2024/01/28 02:53:49;;;;;;;25.70;15.60;;;-0.80;99.90;;;;;;3104066;28;20042;-84
2024/01/28 02:55:20;;;;;;;17.73;16.02;;;-0.50;99.90;;;;;;3106959;28;20154;-84
2024/01/28 02:56:51;;;;;;;21.75;13.93;;;-0.80;99.90;;;;;;3107406;28;20041;-85
2024/01/28 02:58:22;;;;;;;17.60;14.43;;;-0.80;99.90;;;;;;3106974;28;20072;-84
2024/01/28 02:59:53;;;;;;;24.25;15.98;;;-0.80;99.90;;;;;;3107868;28;20128;-84
2024/01/28 03:01:24;;;;;;;23.20;15.80;;;-0.80;99.90;;;;;;3111093;28;20485;-85
2024/01/28 03:02:56;;;;;;;22.35;14.55;;;-0.60;99.90;;;;;;3099488;28;20038;-87
2024/01/28 03:04:26;;;;;;;15.50;13.85;;;-0.90;99.90;;;;;;3103966;28;20038;-84
2024/01/28 03:05:57;;;;;;;17.40;13.80;;;-0.60;99.90;;;;;;3107097;28;20108;-86
2024/01/28 03:07:28;;;;;;;14.85;12.20;;;-1.00;99.90;;;;;;3119840;28;20108;-85
2024/01/28 03:08:58;;;;;;;22.85;13.68;;;-0.80;99.90;;;;;;3111839;28;20117;-85
2024/01/28 03:10:30;;;;;;;29.20;13.48;;;-1.00;99.90;;;;;;3112352;28;20538;-85
2024/01/28 03:12:01;;;;;;;15.55;13.45;;;-1.00;99.90;;;;;;3110380;28;20033;-84
2024/01/28 03:13:32;;;;;;;15.05;13.05;;;-0.40;99.90;;;;;;3095404;28;20057;-84
2024/01/28 03:15:03;;;;;;;16.17;11.52;;;-1.10;99.90;;;;;;3095844;28;20038;-86
2024/01/28 03:16:34;;;;;;;13.82;12.43;;;-1.10;99.90;;;;;;3103906;28;20025;-86
2024/01/28 03:18:06;;;;;;;25.10;11.95;;;-0.50;99.90;;;;;;3107368;28;20081;-84
2024/01/28 03:19:36;;;;;;;18.77;10.63;;;-1.10;99.90;;;;;;3108194;28;20026;-84
2024/01/28 03:21:08;;;;;;;15.77;10.77;;;-0.90;99.90;;;;;;3098877;28;20472;-85
2024/01/28 03:22:39;;;;;;;15.40;11.57;;;-0.30;99.90;;;;;;3095826;28;20029;-84
2024/01/28 03:24:10;;;;;;;16.52;11.82;;;-1.20;99.90;;;;;;3103674;28;20435;-84
2024/01/28 03:25:40;;;;;;;16.20;11.48;;;-1.00;99.90;;;;;;3099201;28;20038;-84
2024/01/28 03:27:11;;;;;;;15.57;11.25;;;-0.90;99.90;;;;;;3091223;28;20053;-84
2024/01/28 03:28:42;;;;;;;17.38;10.73;;;-1.30;99.90;;;;;;3103504;28;20029;-86
2024/01/28 03:30:13;;;;;;;20.75;11.10;;;-1.20;99.90;;;;;;3096086;28;20022;-84
2024/01/28 03:31:44;;;;;;;15.32;11.60;;;-1.30;99.90;;;;;;3106411;28;20034;-85
2024/01/28 03:33:15;;;;;;;13.23;9.65;;;-0.60;99.90;;;;;;3095099;28;20045;-84
2024/01/28 03:34:45;;;;;;;13.98;12.45;;;-1.40;99.90;;;;;;3103887;28;20030;-85
2024/01/28 03:36:17;;;;;;;16.05;11.48;;;-0.90;99.90;;;;;;3094991;28;20110;-86
2024/01/28 03:37:47;;;;;;;19.25;13.82;;;-1.40;99.90;;;;;;3115764;28;20026;-85
2024/01/28 03:39:18;;;;;;;15.10;10.82;;;-1.50;99.90;;;;;;3099563;28;20065;-84
2024/01/28 03:40:49;;;;;;;10.32;9.27;;;-1.50;99.90;;;;;;3102148;28;20029;-84
2024/01/28 03:42:21;;;;;;;11.88;10.68;;;-0.80;99.90;;;;;;3095885;28;20045;-86
2024/01/28 03:43:52;;;;;;;19.27;12.35;;;-0.90;99.90;;;;;;3097594;28;20038;-86
2024/01/28 03:45:23;;;;;;;16.85;11.20;;;-1.00;99.90;;;;;;3103916;28;20042;-85
2024/01/28 03:46:55;;;;;;;12.65;10.30;;;-1.40;99.90;;;;;;3086564;28;20066;-84
2024/01/28 03:48:25;;;;;;;16.00;13.23;;;-1.50;99.90;;;;;;3114963;28;20124;-86
2024/01/28 03:49:56;;;;;;;13.82;11.18;;;-1.50;99.90;;;;;;3102039;28;20391;-87
2024/01/28 03:51:27;;;;;;;13.07;11.73;;;-1.50;99.90;;;;;;3110340;28;20056;-84
2024/01/28 03:52:58;;;;;;;16.52;11.18;;;-0.90;99.90;;;;;;3102541;28;20161;-87
2024/01/28 03:54:28;;;;;;;16.88;12.10;;;-0.90;99.90;;;;;;3112695;28;20018;-88
2024/01/28 03:55:59;;;;;;;28.95;9.85;;;-1.50;99.90;;;;;;3109355;28;20038;-89
2024/01/28 03:57:30;;;;;;;20.60;10.68;;;-1.10;99.90;;;;;;3121884;28;20026;-85
2024/01/28 03:59:01;;;;;;;17.60;11.10;;;-1.50;99.90;;;;;;3122055;28;20025;-91
2024/01/28 04:00:33;;;;;;;19.00;12.98;;;-1.50;99.90;;;;;;3113813;28;20041;-89
2024/01/28 04:02:04;;;;;;;12.00;10.40;;;-1.00;99.90;;;;;;3116920;28;20032;-83
2024/01/28 04:03:38;;;;;;;13.40;10.57;;;-0.10;99.90;;;;;;3089689;28;20027;-87
2024/01/28 04:05:09;;;;;;;13.48;11.82;;;-1.30;99.90;;;;;;3102972;28;20033;-85
2024/01/28 04:06:44;;;;;;;12.73;10.82;;;-1.30;99.90;;;;;;3114957;28;20088;-86
2024/01/28 04:08:15;;;;;;;10.93;9.95;;;-1.30;99.90;;;;;;3114035;28;20026;-87
2024/01/28 04:09:45;;;;;;;17.15;13.50;;;-0.90;99.90;;;;;;3122599;28;20025;-86
2024/01/28 04:11:16;;;;;;;18.65;10.68;;;-0.90;99.90;;;;;;3113345;28;20029;-86
2024/01/28 04:12:47;;;;;;;12.82;10.80;;;-1.20;99.90;;;;;;3110382;28;20010;-86
2024/01/28 04:14:18;;;;;;;15.07;12.63;;;-1.20;99.90;;;;;;3114456;28;20042;-85
2024/01/28 04:15:49;;;;;;;17.60;11.52;;;-1.30;99.90;;;;;;3110633;28;20021;-83
2024/01/28 04:17:20;;;;;;;12.73;11.45;;;-1.30;99.90;;;;;;3100323;28;20030;-84
2024/01/28 04:18:51;;;;;;;15.63;11.88;;;-1.10;99.90;;;;;;3095356;28;20042;-84
2024/01/28 04:20:22;;;;;;;12.25;10.05;;;-1.30;99.90;;;;;;3107122;28;20034;-84
2024/01/28 04:21:53;;;;;;;20.35;11.20;;;-1.30;99.90;;;;;;3099142;28;20036;-84
2024/01/28 04:23:24;;;;;;;15.63;10.43;;;-0.90;99.90;;;;;;3107266;28;20081;-84
2024/01/28 04:24:55;;;;;;;17.90;10.35;;;-0.80;99.90;;;;;;3099017;28;20458;-85
2024/01/28 04:26:25;;;;;;;16.23;10.38;;;-1.30;99.90;;;;;;3094792;28;20037;-84
2024/01/28 04:27:56;;;;;;;17.05;10.02;;;-0.80;99.90;;;;;;3094762;28;20026;-84
2024/01/28 04:29:27;;;;;;;12.82;9.10;;;-1.30;99.90;;;;;;3087091;28;20027;-84
2024/01/28 04:30:58;;;;;;;16.83;10.35;;;-1.30;99.90;;;;;;3093153;28;20475;-84
2024/01/28 04:32:28;;;;;;;11.48;10.25;;;-0.80;99.90;;;;;;3094764;28;20069;-84
2024/01/28 04:33:59;;;;;;;11.60;10.45;;;-1.30;99.90;;;;;;3095092;28;20037;-85
2024/01/28 04:35:30;;;;;;;10.27;9.27;;;-0.90;99.90;;;;;;3082751;28;20126;-84
2024/01/28 04:37:01;;;;;;;27.20;9.30;;;-1.30;99.90;;;;;;3102510;28;20094;-85
2024/01/28 04:38:34;;;;;;;16.63;9.43;;;;;;;;;;3107247;28;20036;-86
2024/01/28 04:40:06;;;;;;;13.07;11.23;;;-1.30;99.90;;;;;;3107293;28;20394;-84
2024/01/28 04:41:37;;;;;;;23.83;11.13;;;-1.30;99.90;;;;;;3106050;28;20112;-85
2024/01/28 04:43:08;;;;;;;10.73;8.60;;;-1.30;99.90;;;;;;3082873;28;20058;-84
2024/01/28 04:44:38;;;;;;;14.82;9.63;;;-1.10;99.90;;;;;;3102955;28;20093;-85
2024/01/28 04:46:12;;;;;;;20.38;10.95;;;-1.30;99.90;;;;;;3082661;28;20391;-85
2024/01/28 04:47:43;;;;;;;9.40;8.45;;;-0.70;99.90;;;;;;3091757;28;20120;-84
2024/01/28 04:49:14;;;;;;;12.45;10.98;;;-0.20;99.90;;;;;;3102845;28;20359;-85
2024/01/28 04:50:45;;;;;;;9.48;8.60;;;-1.30;99.90;;;;;;3094859;28;20085;-85
2024/01/28 04:52:16;;;;;;;8.95;8.18;;;-0.80;99.90;;;;;;3090671;28;20034;-85
2024/01/28 04:53:47;;;;;;;14.50;10.23;;;-1.30;99.90;;;;;;3102897;28;20030;-84
2024/01/28 04:55:18;;;;;;;11.20;8.68;;;-1.30;99.90;;;;;;3106949;28;20498;-84
2024/01/28 04:56:48;;;;;;;14.27;10.13;;;-0.40;99.90;;;;;;3098669;28;20070;-86
2024/01/28 04:58:19;;;;;;;11.88;10.32;;;-1.30;99.90;;;;;;3102660;28;20060;-84
2024/01/28 04:59:50;;;;;;;7.85;7.15;;;-1.20;99.90;;;;;;3094757;28;20463;-84
2024/01/28 05:01:21;;;;;;;11.05;9.68;;;-1.30;99.90;;;;;;3101562;28;20056;-84
2024/01/28 05:02:55;;;;;;;9.57;8.75;;;-0.60;99.90;;;;;;3111263;28;20034;-84
2024/01/28 05:04:26;;;;;;;11.40;8.63;;;-0.60;99.90;;;;;;3098353;28;20045;-84
2024/01/28 05:05:57;;;;;;;14.13;8.77;;;-1.40;99.90;;;;;;3102657;28;20112;-84
2024/01/28 05:07:29;;;;;;;10.95;7.43;;;-1.50;99.90;;;;;;3107329;28;20058;-84
2024/01/28 05:09:01;;;;;;;9.32;8.40;;;-1.10;99.90;;;;;;3098327;28;20026;-85
2024/01/28 05:10:32;;;;;;;10.13;9.15;;;-1.20;99.90;;;;;;3094107;28;20057;-85
2024/01/28 05:12:03;;;;;;;10.40;9.07;;;-1.60;99.90;;;;;;3096047;28;20033;-87
2024/01/28 05:13:34;;;;;;;14.45;8.30;;;-1.60;99.90;;;;;;3098691;28;20479;-85
2024/01/28 05:15:07;;;;;;;9.50;8.52;;;-1.60;99.90;;;;;;3110257;28;20038;-84
2024/01/28 05:16:38;;;;;;;9.52;8.60;;;-1.60;99.90;;;;;;3097980;28;20041;-85
2024/01/28 05:18:09;;;;;;;14.52;8.52;;;-1.10;99.90;;;;;;3085492;28;20229;-84
2024/01/28 05:19:40;;;;;;;10.30;9.32;;;-1.60;99.90;;;;;;3093872;28;20062;-84
2024/01/28 05:21:11;;;;;;;14.93;10.20;;;-1.60;99.90;;;;;;3085093;28;20042;-84
2024/01/28 05:22:43;;;;;;;17.08;9.38;;;-1.60;99.90;;;;;;3093857;28;20027;-85
2024/01/28 05:24:14;;;;;;;11.15;8.23;;;-1.60;99.90;;;;;;3094136;28;20026;-84
2024/01/28 05:25:44;;;;;;;11.35;10.23;;;-1.20;99.90;;;;;;3093703;28;20034;-85
2024/01/28 05:27:16;;;;;;;13.02;9.02;;;-1.40;99.90;;;;;;3094261;28;20041;-84
2024/01/28 05:28:47;;;;;;;15.38;8.95;;;-1.60;99.90;;;;;;3082162;28;20035;-84
2024/01/28 05:30:18;;;;;;;8.65;7.85;;;-1.00;99.90;;;;;;3078325;28;20025;-85
2024/01/28 05:31:48;;;;;;;14.75;11.38;;;-1.50;99.90;;;;;;3100985;28;20026;-84
2024/01/28 05:33:19;;;;;;;14.65;9.82;;;-1.20;99.90;;;;;;3097711;28;20117;-84
2024/01/28 05:34:50;;;;;;;13.13;9.40;;;-1.40;99.90;;;;;;3094058;28;20030;-84
2024/01/28 05:36:22;;;;;;;10.38;8.77;;;-1.20;99.90;;;;;;3085769;28;20038;-84
2024/01/28 05:37:53;;;;;;;15.82;10.98;;;-0.90;99.90;;;;;;3077925;28;20081;-84
2024/01/28 05:39:23;;;;;;;24.27;8.98;;;-0.80;99.90;;;;;;3101886;28;20524;-84
2024/01/28 05:40:54;;;;;;;8.57;7.75;;;-1.30;99.90;;;;;;3103822;28;20109;-84
2024/01/28 05:42:25;;;;;;;12.48;8.98;;;-1.20;99.90;;;;;;3097425;28;20133;-84
2024/01/28 05:43:56;;;;;;;17.20;10.93;;;-1.40;99.90;;;;;;3106167;28;20397;-85
2024/01/28 05:45:27;;;;;;;16.50;9.07;;;-0.70;99.90;;;;;;3085588;28;20030;-85
2024/01/28 05:46:59;;;;;;;14.85;9.95;;;-0.20;99.90;;;;;;3083003;28;20463;-84
2024/01/28 05:48:31;;;;;;;13.95;10.45;;;-1.40;99.90;;;;;;3090737;28;20046;-85
2024/01/28 05:50:02;;;;;;;12.82;9.85;;;-1.40;99.90;;;;;;3116834;28;20030;-87
2024/01/28 05:51:38;;;;;;;14.13;11.88;;;-1.30;99.90;;;;;;3095914;28;20031;-84
2024/01/28 05:53:09;;;;;;;13.27;8.85;;;-0.80;99.90;;;;;;3114488;28;20029;-85
2024/01/28 05:54:42;;;;;;;19.88;10.45;;;-1.30;99.90;;;;;;3100365;28;20045;-84
2024/01/28 05:56:13;;;;;;;10.65;9.45;;;-1.30;99.90;;;;;;3104728;28;20030;-84
2024/01/28 05:57:44;;;;;;;11.20;10.20;;;-1.20;99.90;;;;;;3096237;28;20125;-84
2024/01/28 05:59:15;;;;;;;17.83;9.52;;;-1.40;99.90;;;;;;3116107;28;20563;-84
2024/01/28 06:00:46;;;;;;;18.05;9.20;;;-0.90;99.90;;;;;;3099504;28;20033;-85
2024/01/28 06:02:17;;;;;;;9.98;7.05;;;-1.20;99.90;;;;;;3104360;28;20121;-84
2024/01/28 06:03:49;;;;;;;12.50;10.30;;;;;;;;;;3093883;28;20022;-84
2024/01/28 06:05:19;;;;;;;20.35;9.50;;;-1.30;99.90;;;;;;3095189;28;20430;-84
2024/01/28 06:06:50;;;;;;;14.07;8.93;;;-0.90;99.90;;;;;;3084005;28;20061;-84
2024/01/28 06:08:21;;;;;;;10.93;9.48;;;-1.40;99.90;;;;;;3098313;28;20041;-84
2024/01/28 06:09:52;;;;;;;9.75;6.88;;;-1.20;99.90;;;;;;3083539;28;20038;-84
2024/01/28 06:11:23;;;;;;;12.43;9.15;;;-0.80;99.90;;;;;;3090471;28;20679;-86
2024/01/28 06:12:53;;;;;;;9.80;8.25;;;-1.40;99.90;;;;;;3092093;28;20394;-84
2024/01/28 06:14:25;;;;;;;13.27;8.98;;;-1.10;99.90;;;;;;3087134;28;20058;-85
2024/01/28 06:15:55;;;;;;;10.32;7.78;;;-0.30;99.90;;;;;;3083699;28;20113;-84
2024/01/28 06:17:26;;;;;;;8.30;7.57;;;-1.40;99.90;;;;;;3100177;28;20030;-85
2024/01/28 06:18:57;;;;;;;9.77;8.68;;;-1.50;99.90;;;;;;3095994;28;20070;-84
2024/01/28 06:20:28;;;;;;;12.77;7.93;;;-1.20;99.90;;;;;;3107298;28;20042;-84
2024/01/28 06:22:02;;;;;;;12.63;9.20;;;-1.50;99.90;;;;;;3106183;28;20409;-84
2024/01/28 06:23:33;;;;;;;16.23;8.05;;;-1.50;99.90;;;;;;3107770;28;20029;-85
2024/01/28 06:25:05;;;;;;;11.27;7.50;;;-1.00;99.90;;;;;;3099742;28;20023;-86
2024/01/28 06:26:38;;;;;;;7.47;6.88;;;-1.40;99.90;;;;;;3116622;28;20080;-86
2024/01/28 06:28:09;;;;;;;18.60;8.40;;;-1.50;99.90;;;;;;3101899;28;20120;-84
2024/01/28 06:29:40;;;;;;;8.10;7.15;;;-1.50;99.90;;;;;;3078493;28;20046;-85
2024/01/28 06:31:12;;;;;;;10.00;9.05;;;-1.50;99.90;;;;;;3102143;28;20068;-85
2024/01/28 06:32:43;;;;;;;8.52;7.57;;;-1.10;99.90;;;;;;3097421;28;20093;-85
2024/01/28 06:34:13;;;;;;;14.10;7.85;;;-1.60;99.90;;;;;;3109062;28;20058;-85
2024/01/28 06:35:45;;;;;;;13.43;7.22;;;;;;;;;;3109942;28;20101;-85
2024/01/28 06:37:15;;;;;;;8.07;7.38;;;-1.60;99.90;;;;;;3108022;28;20025;-85
2024/01/28 06:38:47;;;;;;;14.63;8.45;;;-1.50;99.90;;;;;;3108129;28;20038;-85
2024/01/28 06:40:17;;;;;;;9.32;7.57;;;-0.30;99.90;;;;;;3095731;28;20121;-85
2024/01/28 06:41:50;;;;;;;10.35;8.60;;;-1.50;99.90;;;;;;3075367;28;20032;-85
2024/01/28 06:43:20;;;;;;;10.43;8.07;;;-1.50;99.90;;;;;;3089489;28;20018;-85
2024/01/28 06:44:51;;;;;;;8.00;6.82;;;-1.30;99.90;;;;;;3105850;28;20037;-84
2024/01/28 06:46:22;;;;;;;8.68;7.10;;;-1.50;99.90;;;;;;3107526;28;20061;-84
2024/01/28 06:47:54;;;;;;;13.63;9.05;;;-1.50;99.90;;;;;;3083454;28;20085;-85
2024/01/28 06:49:25;;;;;;;10.50;7.88;;;-1.50;99.90;;;;;;3091639;28;20030;-84
2024/01/28 06:50:56;;;;;;;16.35;9.60;;;-1.50;99.90;;;;;;3079368;28;20487;-84
2024/01/28 06:52:27;;;;;;;8.88;8.02;;;-1.50;99.90;;;;;;3091433;28;20173;-85
2024/01/28 06:53:58;;;;;;;9.48;8.20;;;-1.00;99.90;;;;;;3109264;28;20025;-83
2024/01/28 06:55:28;;;;;;;11.27;8.60;;;-1.00;99.90;;;;;;3095992;28;20018;-84
2024/01/28 06:56:59;;;;;;;21.63;8.93;;;-1.60;99.90;;;;;;3068946;28;20035;-85
2024/01/28 06:58:30;;;;;;;11.20;8.07;;;-1.00;99.90;;;;;;3092521;28;20026;-85
2024/01/28 07:00:02;;;;;;;9.15;8.30;;;-1.60;99.90;;;;;;3108288;28;20040;-85
2024/01/28 07:01:35;;;;;;;14.65;8.30;;;-1.20;99.90;;;;;;3110652;28;20026;-84
2024/01/28 07:03:06;;;;;;;10.95;8.45;;;-1.40;99.90;;;;;;3095080;28;20443;-86
2024/01/28 07:04:38;;;;;;;11.98;8.95;;;-1.10;99.90;;;;;;3109170;28;20037;-87
2024/01/28 07:06:14;;;;;;;9.07;8.23;;;-1.50;99.90;;;;;;3113235;28;20458;-85
2024/01/28 07:07:44;;;;;;;8.82;8.13;;;-1.50;99.90;;;;;;3109829;28;20030;-85
2024/01/28 07:09:17;;;;;;;13.50;8.73;;;-1.10;99.90;;;;;;3100102;28;20037;-86
2024/01/28 07:10:48;;;;;;;8.68;7.65;;;-1.40;99.90;;;;;;3083294;28;20027;-88
2024/01/28 07:12:19;;;;;;;8.50;7.63;;;-1.40;99.90;;;;;;3108022;28;20064;-84
2024/01/28 07:13:50;;;;;;;8.63;7.50;;;-1.40;99.90;;;;;;3108678;28;20485;-84
2024/01/28 07:15:21;;;;;;;19.25;7.68;;;-1.50;99.90;;;;;;3089182;28;20019;-85
2024/01/28 07:16:52;;;;;;;8.98;8.10;;;-1.10;99.90;;;;;;3100655;28;20036;-84
2024/01/28 07:18:22;;;;;;;9.35;8.25;;;-1.50;99.90;;;;;;3106464;28;20097;-84
2024/01/28 07:19:53;;;;;;;8.23;7.45;;;-1.20;99.90;;;;;;3095701;28;20390;-85
2024/01/28 07:21:24;;;;;;;11.10;7.95;;;-1.40;99.90;;;;;;3090647;28;20044;-83
2024/01/28 07:22:55;;;;;;;8.52;7.65;;;-1.50;99.90;;;;;;3088710;28;20035;-84
2024/01/28 07:24:26;;;;;;;9.23;8.05;;;-1.50;99.90;;;;;;3103693;28;20065;-84
2024/01/28 07:25:56;;;;;;;15.75;9.52;;;-1.60;99.90;;;;;;3099785;28;20030;-85
2024/01/28 07:27:27;;;;;;;7.70;6.85;;;-1.60;99.90;;;;;;3103270;28;20034;-86
2024/01/28 07:28:58;;;;;;;9.27;7.55;;;-1.50;99.90;;;;;;3108203;28;20064;-85
2024/01/28 07:30:30;;;;;;;11.07;7.78;;;-1.60;99.90;;;;;;3106838;28;20026;-84
2024/01/28 07:32:01;;;;;;;9.90;7.88;;;-1.60;99.90;;;;;;3092402;28;20022;-84
2024/01/28 07:33:33;;;;;;;11.25;7.43;;;-1.00;99.90;;;;;;3101563;28;20115;-87
2024/01/28 07:35:05;;;;;;;10.15;7.53;;;-1.70;99.90;;;;;;3092812;28;20113;-84
2024/01/28 07:36:36;;;;;;;10.57;9.48;;;-1.70;99.90;;;;;;3090320;28;20039;-84
2024/01/28 07:38:08;;;;;;;9.90;8.90;;;-1.20;99.90;;;;;;3102324;28;20030;-84
2024/01/28 07:39:39;;;;;;;10.27;8.20;;;-1.60;99.90;;;;;;3098743;28;20100;-85
2024/01/28 07:41:14;;;;;;;10.60;6.97;;;-1.60;99.90;;;;;;3092841;28;20039;-85
2024/01/28 07:42:45;;;;;;;9.52;6.30;;;-1.50;99.90;;;;;;3090865;28;20030;-85
2024/01/28 07:44:16;;;;;;;8.98;8.27;;;-1.60;99.90;;;;;;3103693;28;20029;-85
2024/01/28 07:45:47;;;;;;;12.50;8.30;;;-1.50;99.90;;;;;;3094382;28;20077;-84